• Join FlightAware (Why Join?)
  • Login
  • US Flag 
07:19PM EDT


 

Airport Tracker/Info


-or-


 

Live Flight TrackerFlight Track Log ✈ AAY876 ✈ 20-Jun-2014 ✈ KPIE - KRFD

Flight Track Log - Related Links

Times and Time Zones

All times are in EDT time to prevent confusion due to time zone crossing. See the AAY876 flight status page for this flight to view local times or setup timezone preferences in your user account.

Time Position Orientation Groundspeed Altitude Reporting Facility
EDT Latitude Longitude Course Direction KTS MPH feet Rate Location/Type
04:18PM 27.9333 -82.7000 348° North 164 189 900  Level Tampa TRACON
04:19PM 28.0000 -82.6667 24° Northeast 253 291 2,200 1,740 Climbing Tampa TRACON
04:20PM 28.0833 -82.6500 10° North 277 319 5,200 2,640 Climbing Tampa TRACON
04:22PM 28.2378 -82.6900 347° North 279 321 10,500 2,040 Climbing Miami Center
04:23PM 28.8987 -82.8913 348° North  Level FlightAware Approximate
04:23PM 28.3225 -82.7178 344° North 309 356 11,700  Level Miami Center
04:24PM 28.4200 -82.7408 348° North 346 398 13,800 1,980 Climbing Miami Center
04:25PM 28.5203 -82.7653 348° North 361 415 15,900 1,800 Climbing Miami Center
04:26PM 28.6308 -82.7944 347° North 379 436 17,600 1,860 Climbing Miami Center
04:27PM 28.7383 -82.8239 346° North 376 433 19,700 1,980 Climbing Jacksonville Center
04:28PM 28.8428 -82.8500 348° North 376 433 21,600 1,260 Climbing Jacksonville Center
04:29PM 28.9514 -82.8783 347° North 376 433 22,300 1,020 Climbing Jacksonville Center
04:30PM 29.0661 -82.9092 347° North 395 455 23,700 1,320 Climbing Jacksonville Center
04:31PM 29.1831 -82.9400 347° North 412 474 25,000 1,380 Climbing Jacksonville Center
04:32PM 29.3000 -82.9711 347° North 422 486 26,500 1,260 Climbing Jacksonville Center
04:33PM 29.4189 -83.0022 347° North 427 491 27,600 1,080 Climbing Jacksonville Center
04:34PM 29.5442 -83.0358 347° North 440 506 28,700 960 Climbing Jacksonville Center
04:35PM 29.6483 -83.0694 344° North 442 509 29,600 900 Climbing Jacksonville Center
04:42PM 30.4265 -83.3819 347° North 426 490 36,000 780 Climbing FlightAware ADS-B (KTLH)
04:43PM 30.5641 -83.4178 348° North 426 490 36,000  Level FlightAware ADS-B (KTLH)
04:44PM 30.6220 -83.4327 348° North 425 489 36,000  Level FlightAware ADS-B (KTLH)
04:44PM 30.6949 -83.4514 348° North 425 489 36,000  Level FlightAware ADS-B (KTLH)
04:45PM 30.8018 -83.4781 348° North 427 491 36,000  Level FlightAware ADS-B (KTLH)
04:47PM 30.9591 -83.5243 344° North 431 496 36,000  Level FlightAware ADS-B (KTLH)
04:48PM 31.1032 -83.5726 341° North 430 495 36,100  Climbing FlightAware ADS-B (KTLH)
04:48PM 31.1717 -83.6116 329° Northwest 428 493 36,000 -120 Descending FlightAware ADS-B (KTLH)
04:49PM 31.2549 -83.6687 330° Northwest 428 493 36,000  Level FlightAware ADS-B (KTLH)
04:50PM 31.3433 -83.7253 330° Northwest 428 493 36,000  Level Atlanta Center
04:51PM 31.4417 -83.7736 337° Northwest 428 493 36,000  Level Atlanta Center
04:52PM 31.5564 -83.8122 344° North 428 493 36,000  Level Atlanta Center
04:53PM 31.6942 -83.7997 North 428 493 36,000  Level Atlanta Center
04:54PM 31.8153 -83.7872 North 428 493 36,000  Level Atlanta Center
04:55PM 31.9489 -83.7842 North 456 525 36,000  Level Atlanta Center
04:56PM 32.0719 -83.7839 360° North 456 525 36,000  Level Atlanta Center
04:57PM 32.1972 -83.8008 353° North 456 525 36,000  Level Atlanta Center
04:58PM 32.3244 -83.8225 352° North 456 525 36,000  Level Atlanta Center
04:59PM 32.4519 -83.8419 353° North 461 531 36,000  Level Atlanta Center
05:00PM 32.5772 -83.8664 351° North 461 531 36,000  Level Atlanta Center
05:01PM 32.7003 -83.9006 347° North 461 531 36,000  Level Atlanta Center
05:02PM 32.8214 -83.9547 339° North 461 531 36,000  Level Atlanta Center
05:03PM 32.9447 -83.9967 344° North 461 531 36,000  Level Atlanta Center
05:04PM 33.0469 -84.0214 349° North 461 531 36,000  Level Atlanta Center
05:05PM 33.1828 -84.0489 350° North 455 524 36,000  Level Atlanta Center
05:06PM 33.3100 -84.0686 353° North 450 518 36,000  Level Atlanta Center
05:11PM 34.0636 -84.1932 352° North 454 522 36,000  Level FlightAware ADS-B (KDZJ)
05:12PM 34.1454 -84.2071 352° North 454 522 36,000  Level FlightAware ADS-B (KDZJ)
05:12PM 34.2322 -84.2218 352° North 453 521 36,000  Level FlightAware ADS-B (KDZJ)
05:13PM 34.3179 -84.2366 352° North 458 527 36,000 180 Level FlightAware ADS-B (KDZJ)
05:14PM 34.4002 -84.2528 350° North 458 527 36,300 660 Climbing FlightAware ADS-B (KDZJ)
05:14PM 34.4838 -84.2719 350° North 456 525 36,900 480 Climbing FlightAware ADS-B (KDZJ)
05:15PM 34.5625 -84.2897 349° North 458 527 37,000 60 Climbing FlightAware ADS-B (KDZJ)
05:16PM 34.6465 -84.3216 340° North 449 517 37,000  Level FlightAware ADS-B (KDZJ)
05:16PM 34.7265 -84.3561 340° North 446 513 37,000  Level FlightAware ADS-B (KDZJ)
05:17PM 34.8034 -84.3888 340° North 446 513 37,000  Level FlightAware ADS-B (KDZJ)
05:18PM 34.8848 -84.4236 340° North 447 514 37,000  Level FlightAware ADS-B (KDZJ)
05:18PM 34.9644 -84.4580 340° North 446 513 37,000  Level FlightAware ADS-B (KDZJ)
05:19PM 35.0436 -84.4921 340° North 447 514 37,000  Level FlightAware ADS-B (KDZJ)
05:20PM 35.1235 -84.5267 340° North 449 517 37,000 60 Level FlightAware ADS-B (KDZJ)
05:20PM 35.2042 -84.5618 340° North 458 527 37,100 420 Climbing FlightAware ADS-B (KDZJ)
05:21PM 35.2829 -84.5960 340° North 446 513 37,600 360 Climbing FlightAware ADS-B (KDZJ)
05:23PM 35.3950 -84.6448 340° North 448 516 38,000 60 Climbing FlightAware ADS-B (KMDQ)
05:26PM 35.7238 -84.8569 329° Northwest 448 516 38,000  Level FlightAware ADS-B (KMDQ)
05:27PM 35.8689 -84.9476 338° Northwest 448 516 38,000  Level FlightAware ADS-B (KMDQ)
05:29PM 36.0728 -85.0329 340° North 449 517 38,000  Level FlightAware ADS-B (KMDQ)
05:30PM 36.1518 -85.0674 341° North 450 518 38,000  Level FlightAware ADS-B (KMDQ)
05:31PM 36.2889 -85.1264 341° North 451 519 38,000  Level Indianapolis Center
05:32PM 36.4081 -85.1764 341° North 451 519 38,000  Level Indianapolis Center
05:33PM 36.5264 -85.2292 340° North 451 519 38,000  Level Indianapolis Center
05:34PM 36.6678 -85.2892 341° North 450 518 38,000  Level Indianapolis Center
05:35PM 36.7842 -85.3403 341° North 448 516 38,000  Level Indianapolis Center
05:36PM 36.9033 -85.3914 341° North 448 516 38,000  Level Indianapolis Center
05:37PM 37.0219 -85.4433 341° North 449 517 38,000  Level Indianapolis Center
05:38PM 37.1539 -85.4989 341° North 449 517 38,000  Level Indianapolis Center
05:39PM 37.2744 -85.5333 347° North 450 518 38,000  Level Indianapolis Center
05:40PM 37.4011 -85.5644 349° North 461 531 38,000  Level Indianapolis Center
05:41PM 37.5253 -85.5919 350° North 459 528 38,000  Level Indianapolis Center
05:42PM 37.6511 -85.6147 352° North 456 525 38,000  Level Indianapolis Center
05:43PM 37.7753 -85.6322 354° North 451 519 38,000  Level Indianapolis Center
05:44PM 37.9242 -85.6489 355° North 451 519 38,000  Level Indianapolis Center
05:45PM 38.0456 -85.6786 349° North 448 516 38,000 -60 Level Indianapolis Center
05:46PM 38.1614 -85.7333 340° North 447 514 37,900  Descending Indianapolis Center
05:47PM 38.2817 -85.7822 342° North 447 514 38,000  Climbing Indianapolis Center
05:48PM 38.4025 -85.8356 341° North 455 524 38,000  Level Indianapolis Center
05:49PM 38.5189 -85.9014 336° Northwest 456 525 38,000  Level Indianapolis Center
05:50PM 38.6342 -85.9664 336° Northwest 455 524 38,000  Level Indianapolis Center
05:51PM 38.7511 -86.0303 337° Northwest 455 524 38,000  Level Indianapolis Center
05:52PM 38.8900 -86.1078 337° Northwest 455 524 38,000  Level Indianapolis Center
05:54PM 38.9889 -86.1856 329° Northwest 451 519 38,000  Level Indianapolis Center
05:54PM 39.0413 -86.2306 328° Northwest 38,000  Level FlightAware ADS-B (KMDW)
05:55PM 39.0928 -86.2744 326° Northwest 449 517 38,000  Level Indianapolis Center
05:56PM 39.1981 -86.3625 327° Northwest 449 517 38,000  Level Indianapolis Center
05:57PM 39.3036 -86.4506 327° Northwest 449 517 38,000  Level Indianapolis Center
05:58PM 39.4097 -86.5378 328° Northwest 449 517 38,000  Level Indianapolis Center
06:03PM 40.1208 -86.9072 344° North 467 537 38,000  Level FlightAware ADS-B (KMDW)
06:04PM 40.2041 -86.9379 344° North 467 537 38,000  Level FlightAware ADS-B (KMDW)
06:05PM 40.2841 -86.9675 344° North 464 534 38,000  Level FlightAware ADS-B (KMDW)
06:05PM 40.3251 -86.9894 329° Northwest 452 520 38,000  Level FlightAware ADS-B (KMDW)
06:06PM 40.4262 -87.0946 321° Northwest 443 510 38,000 -300 Level FlightAware ADS-B (KMDW)
06:07PM 40.4857 -87.1578 321° Northwest 436 502 37,500 -840 Descending FlightAware ADS-B (KMDW)
06:07PM 40.5514 -87.2281 321° Northwest 437 503 36,900 -960 Descending FlightAware ADS-B (KMDW)
06:08PM 40.5981 -87.2784 321° Northwest 440 506 36,400 -960 Descending FlightAware ADS-B (KMDW)
06:09PM 40.6611 -87.3462 321° Northwest 445 512 35,800 -960 Descending FlightAware ADS-B (KMDW)
06:09PM 40.7102 -87.3990 321° Northwest 441 507 35,300 -960 Descending FlightAware ADS-B (KMDW)
06:10PM 40.7726 -87.4665 321° Northwest 438 504 34,700 -960 Descending FlightAware ADS-B (KMDW)
06:10PM 40.8197 -87.5177 320° Northwest 443 510 34,200 -1,080 Descending FlightAware ADS-B (KMDW)
06:11PM 40.8838 -87.5874 321° Northwest 448 516 33,500 -1,620 Descending FlightAware ADS-B (KMDW)
06:11PM 40.9339 -87.6417 321° Northwest 441 507 32,300 -2,220 Descending FlightAware ADS-B (KPWK)
06:12PM 41.0088 -87.7234 320° Northwest 423 487 30,600 -2,340 Descending FlightAware ADS-B (KMDW)
06:13PM 41.0537 -87.7728 320° Northwest 419 482 29,300 -2,340 Descending FlightAware ADS-B (KMDW)
06:13PM 41.0968 -87.8202 320° Northwest 407 468 28,300 -2,280 Descending FlightAware ADS-B (KMDW)
06:14PM 41.1417 -87.8694 320° Northwest 403 464 27,000 -2,340 Descending FlightAware ADS-B (KMDW)
06:14PM 41.1971 -87.9302 320° Northwest 391 450 25,600 -1,980 Descending FlightAware ADS-B (KMDW)
06:15PM 41.2555 -87.9945 320° Northwest 382 440 24,100 -1,200 Descending FlightAware ADS-B (KMDW)
06:16PM 41.3076 -88.0523 320° Northwest 384 442 24,000 -120 Descending FlightAware ADS-B (KMDW)
06:16PM 41.3452 -88.0939 320° Northwest 383 441 24,000  Level FlightAware ADS-B
06:17PM 41.3795 -88.1318 320° Northwest 382 440 24,000 -300 Level FlightAware ADS-B
06:18PM 41.4700 -88.2345 316° Northwest 378 435 23,600 -1,080 Descending FlightAware ADS-B (KMDW)
06:18PM 41.5036 -88.2854 312° West 375 432 22,600 -2,100 Descending FlightAware ADS-B
06:19PM 41.5389 -88.3591 297° West 365 420 21,200 -2,100 Descending FlightAware ADS-B (KMDW)
06:20PM 41.5630 -88.4345 288° West 353 406 20,000 -1,800 Descending FlightAware ADS-B (KMDW)
06:20PM 41.5796 -88.5223 282° West 352 405 18,900 -1,740 Descending FlightAware ADS-B (KMDW)
06:21PM 41.5967 -88.6282 282° West 339 390 17,400 -840 Descending FlightAware ADS-B (KPWK)
06:23PM 41.6266 -88.8139 282° West 338 389 17,000 -240 Descending FlightAware ADS-B (KMDW)
06:23PM 41.6392 -88.8939 282° West 335 386 17,000 -900 Level FlightAware ADS-B (KMDW)
06:24PM 41.6525 -88.9778 282° West 330 380 15,800 -1,800 Descending FlightAware ADS-B (KMDW)
06:25PM 41.6640 -89.0502 282° West 325 374 14,700 -1,680 Descending FlightAware ADS-B (KMDW)
06:25PM 41.6767 -89.1332 282° West 315 362 13,600 -1,620 Descending FlightAware ADS-B (KMDW)
06:27PM 41.7117 -89.2637 311° West 312 359 10,800 -1,560 Descending FlightAware ADS-B (KMDW)
06:28PM 41.8235 -89.2428 23° Northeast 284 327 9,600 -1,680 Descending FlightAware ADS-B (KMDW)
06:28PM 41.8559 -89.2250 23° Northeast 284 327 8,700 -1,680 Descending FlightAware ADS-B (KMDW)
06:29PM 41.8964 -89.2047 23° Northeast 287 330 7,800 -1,500 Descending Chicago Center
06:30PM 41.9664 -89.1681 21° North 275 316 6,200 -1,680 Descending Chicago Center
06:31PM 42.0361 -89.1347 20° North 266 306 4,400 -1,200 Descending Chicago Center
06:33PM 42.1458 -89.0183 38° Northeast 244 281 2,500 -720 Descending Chicago Center
06:34PM 42.1878 -88.9917 25° Northeast 208 239 2,300 -180 Descending Chicago Center
06:35PM 42.2381 -89.0194 338° Northwest 207 238 2,200 -120 Descending Chicago Center